sensor_id;sensor_type;location;lat;lon;timestamp;temperature;humidity
30648;DHT22;17683;53.360;9.736;2022-11-06T00:01:11;8.80;99.90
30648;DHT22;17683;53.360;9.736;2022-11-06T00:03:37;8.90;99.90
30648;DHT22;17683;53.360;9.736;2022-11-06T00:06:08;8.90;99.90
30648;DHT22;17683;53.360;9.736;2022-11-06T00:08:53;8.90;99.90
30648;DHT22;17683;53.360;9.736;2022-11-06T00:11:19;8.90;99.90
30648;DHT22;17683;53.360;9.736;2022-11-06T00:13:45;8.90;99.90
30648;DHT22;17683;53.360;9.736;2022-11-06T00:16:13;9.00;99.90
30648;DHT22;17683;53.360;9.736;2022-11-06T00:18:40;9.00;99.90
30648;DHT22;17683;53.360;9.736;2022-11-06T00:21:08;9.00;99.90
30648;DHT22;17683;53.360;9.736;2022-11-06T00:23:34;9.00;99.90
30648;DHT22;17683;53.360;9.736;2022-11-06T00:25:59;9.10;99.90
30648;DHT22;17683;53.360;9.736;2022-11-06T00:28:25;9.00;99.90
30648;DHT22;17683;53.360;9.736;2022-11-06T00:31:02;9.00;99.90
30648;DHT22;17683;53.360;9.736;2022-11-06T00:33:28;9.00;99.90
30648;DHT22;17683;53.360;9.736;2022-11-06T00:35:54;9.00;99.90
30648;DHT22;17683;53.360;9.736;2022-11-06T00:38:19;9.00;99.90
30648;DHT22;17683;53.360;9.736;2022-11-06T00:40:45;9.00;99.90
30648;DHT22;17683;53.360;9.736;2022-11-06T00:43:11;9.00;99.90
30648;DHT22;17683;53.360;9.736;2022-11-06T00:45:37;9.00;99.90
30648;DHT22;17683;53.360;9.736;2022-11-06T00:48:03;9.00;99.90
30648;DHT22;17683;53.360;9.736;2022-11-06T00:50:28;9.00;99.90
30648;DHT22;17683;53.360;9.736;2022-11-06T00:52:54;9.00;99.90
30648;DHT22;17683;53.360;9.736;2022-11-06T00:55:20;9.00;99.90
30648;DHT22;17683;53.360;9.736;2022-11-06T00:57:46;8.90;99.90
30648;DHT22;17683;53.360;9.736;2022-11-06T01:00:12;8.90;99.90
30648;DHT22;17683;53.360;9.736;2022-11-06T01:02:38;8.90;99.90
30648;DHT22;17683;53.360;9.736;2022-11-06T01:05:04;8.90;99.90
30648;DHT22;17683;53.360;9.736;2022-11-06T01:07:30;8.90;99.90
30648;DHT22;17683;53.360;9.736;2022-11-06T01:09:56;8.90;99.90
30648;DHT22;17683;53.360;9.736;2022-11-06T01:12:21;8.90;99.90
30648;DHT22;17683;53.360;9.736;2022-11-06T01:14:47;9.00;99.90
30648;DHT22;17683;53.360;9.736;2022-11-06T01:17:13;8.90;99.90
30648;DHT22;17683;53.360;9.736;2022-11-06T01:19:39;8.90;99.90
30648;DHT22;17683;53.360;9.736;2022-11-06T01:22:04;8.90;99.90
30648;DHT22;17683;53.360;9.736;2022-11-06T01:24:30;9.00;99.90
30648;DHT22;17683;53.360;9.736;2022-11-06T01:26:56;9.00;99.90
30648;DHT22;17683;53.360;9.736;2022-11-06T01:29:22;9.00;99.90
30648;DHT22;17683;53.360;9.736;2022-11-06T01:31:48;9.00;99.90
30648;DHT22;17683;53.360;9.736;2022-11-06T01:34:15;9.00;99.90
30648;DHT22;17683;53.360;9.736;2022-11-06T01:36:41;9.00;99.90
30648;DHT22;17683;53.360;9.736;2022-11-06T01:39:10;9.00;99.90
30648;DHT22;17683;53.360;9.736;2022-11-06T01:41:45;9.10;99.90
30648;DHT22;17683;53.360;9.736;2022-11-06T01:47:27;9.10;99.90
30648;DHT22;17683;53.360;9.736;2022-11-06T01:50:04;9.10;99.90
30648;DHT22;17683;53.360;9.736;2022-11-06T01:52:32;9.10;99.90
30648;DHT22;17683;53.360;9.736;2022-11-06T01:55:10;9.10;99.90
30648;DHT22;17683;53.360;9.736;2022-11-06T01:57:36;9.10;99.90
30648;DHT22;17683;53.360;9.736;2022-11-06T02:00:04;9.10;99.90
30648;DHT22;17683;53.360;9.736;2022-11-06T02:02:30;9.10;99.90
30648;DHT22;17683;53.360;9.736;2022-11-06T02:04:55;9.10;99.90
30648;DHT22;17683;53.360;9.736;2022-11-06T02:07:22;9.10;99.90
30648;DHT22;17683;53.360;9.736;2022-11-06T02:09:48;9.10;99.90
30648;DHT22;17683;53.360;9.736;2022-11-06T02:15:00;9.10;99.90
30648;DHT22;17683;53.360;9.736;2022-11-06T02:29:09;9.20;99.90
30648;DHT22;17683;53.360;9.736;2022-11-06T02:31:38;9.10;99.90
30648;DHT22;17683;53.360;9.736;2022-11-06T02:34:10;9.10;99.90
30648;DHT22;17683;53.360;9.736;2022-11-06T02:36:46;9.20;99.90
30648;DHT22;17683;53.360;9.736;2022-11-06T02:39:17;9.10;99.90
30648;DHT22;17683;53.360;9.736;2022-11-06T02:41:45;9.10;99.90
30648;DHT22;17683;53.360;9.736;2022-11-06T02:44:16;9.10;99.90
30648;DHT22;17683;53.360;9.736;2022-11-06T02:46:52;9.10;99.90
30648;DHT22;17683;53.360;9.736;2022-11-06T02:49:33;9.20;99.90
30648;DHT22;17683;53.360;9.736;2022-11-06T02:52:10;9.20;99.90
30648;DHT22;17683;53.360;9.736;2022-11-06T02:54:40;9.20;99.90
30648;DHT22;17683;53.360;9.736;2022-11-06T02:57:10;9.20;99.90
30648;DHT22;17683;53.360;9.736;2022-11-06T02:59:50;9.20;99.90
30648;DHT22;17683;53.360;9.736;2022-11-06T03:02:21;9.20;99.90
30648;DHT22;17683;53.360;9.736;2022-11-06T03:04:53;9.20;99.90
30648;DHT22;17683;53.360;9.736;2022-11-06T03:07:32;9.20;99.90
30648;DHT22;17683;53.360;9.736;2022-11-06T03:09:59;9.20;99.90
30648;DHT22;17683;53.360;9.736;2022-11-06T03:12:57;9.20;99.90
30648;DHT22;17683;53.360;9.736;2022-11-06T03:15:32;9.20;99.90
30648;DHT22;17683;53.360;9.736;2022-11-06T03:18:10;9.20;99.90
30648;DHT22;17683;53.360;9.736;2022-11-06T03:23:33;9.20;99.90
30648;DHT22;17683;53.360;9.736;2022-11-06T03:26:16;9.20;99.90
30648;DHT22;17683;53.360;9.736;2022-11-06T03:28:52;9.20;99.90
30648;DHT22;17683;53.360;9.736;2022-11-06T03:31:25;9.10;99.90
30648;DHT22;17683;53.360;9.736;2022-11-06T03:33:57;9.10;99.90
30648;DHT22;17683;53.360;9.736;2022-11-06T03:36:28;9.20;99.90
30648;DHT22;17683;53.360;9.736;2022-11-06T03:38:59;9.10;99.90
30648;DHT22;17683;53.360;9.736;2022-11-06T03:41:51;9.10;99.90
30648;DHT22;17683;53.360;9.736;2022-11-06T03:44:20;9.10;99.90
30648;DHT22;17683;53.360;9.736;2022-11-06T03:46:52;9.20;99.90
30648;DHT22;17683;53.360;9.736;2022-11-06T03:49:25;9.20;99.90
30648;DHT22;17683;53.360;9.736;2022-11-06T03:52:02;9.20;99.90
30648;DHT22;17683;53.360;9.736;2022-11-06T03:54:45;9.10;99.90
30648;DHT22;17683;53.360;9.736;2022-11-06T03:57:17;9.20;99.90
30648;DHT22;17683;53.360;9.736;2022-11-06T03:59:52;9.20;99.90
30648;DHT22;17683;53.360;9.736;2022-11-06T04:02:21;9.20;99.90
30648;DHT22;17683;53.360;9.736;2022-11-06T04:04:51;9.20;99.90
30648;DHT22;17683;53.360;9.736;2022-11-06T04:07:24;9.20;99.90
30648;DHT22;17683;53.360;9.736;2022-11-06T04:09:54;9.20;99.90
30648;DHT22;17683;53.360;9.736;2022-11-06T04:12:41;9.20;99.90
30648;DHT22;17683;53.360;9.736;2022-11-06T04:15:26;9.20;99.90
30648;DHT22;17683;53.360;9.736;2022-11-06T04:17:55;9.20;99.90
30648;DHT22;17683;53.360;9.736;2022-11-06T04:20:22;9.20;99.90
30648;DHT22;17683;53.360;9.736;2022-11-06T04:23:17;9.20;99.90
30648;DHT22;17683;53.360;9.736;2022-11-06T04:28:58;9.10;99.90
30648;DHT22;17683;53.360;9.736;2022-11-06T04:37:30;9.10;99.90
30648;DHT22;17683;53.360;9.736;2022-11-06T04:40:08;9.10;99.90
30648;DHT22;17683;53.360;9.736;2022-11-06T04:42:55;9.10;99.90
30648;DHT22;17683;53.360;9.736;2022-11-06T04:45:30;9.20;99.90
30648;DHT22;17683;53.360;9.736;2022-11-06T04:47:57;9.10;99.90
30648;DHT22;17683;53.360;9.736;2022-11-06T04:50:25;9.10;99.90
30648;DHT22;17683;53.360;9.736;2022-11-06T04:52:52;9.10;99.90
30648;DHT22;17683;53.360;9.736;2022-11-06T04:55:20;9.10;99.90
30648;DHT22;17683;53.360;9.736;2022-11-06T04:57:46;9.10;99.90
30648;DHT22;17683;53.360;9.736;2022-11-06T05:00:13;9.00;99.90
30648;DHT22;17683;53.360;9.736;2022-11-06T05:02:40;9.00;99.90
30648;DHT22;17683;53.360;9.736;2022-11-06T05:05:06;9.00;99.90
30648;DHT22;17683;53.360;9.736;2022-11-06T05:07:32;8.90;99.90
30648;DHT22;17683;53.360;9.736;2022-11-06T05:09:57;8.90;99.90
30648;DHT22;17683;53.360;9.736;2022-11-06T05:12:24;8.90;99.90
30648;DHT22;17683;53.360;9.736;2022-11-06T05:14:49;8.90;99.90
30648;DHT22;17683;53.360;9.736;2022-11-06T05:17:15;8.90;99.90
30648;DHT22;17683;53.360;9.736;2022-11-06T05:19:41;8.90;99.90
30648;DHT22;17683;53.360;9.736;2022-11-06T05:22:08;8.90;99.90
30648;DHT22;17683;53.360;9.736;2022-11-06T05:24:53;8.80;99.90
30648;DHT22;17683;53.360;9.736;2022-11-06T05:27:18;8.80;99.90
30648;DHT22;17683;53.360;9.736;2022-11-06T05:29:44;8.70;99.90
30648;DHT22;17683;53.360;9.736;2022-11-06T05:32:10;8.70;99.90
30648;DHT22;17683;53.360;9.736;2022-11-06T05:34:35;8.70;99.90
30648;DHT22;17683;53.360;9.736;2022-11-06T05:37:01;8.70;99.90
30648;DHT22;17683;53.360;9.736;2022-11-06T05:39:27;8.60;99.90
30648;DHT22;17683;53.360;9.736;2022-11-06T05:41:52;8.60;99.90
30648;DHT22;17683;53.360;9.736;2022-11-06T05:44:18;8.70;99.90
30648;DHT22;17683;53.360;9.736;2022-11-06T05:46:44;8.70;99.90
30648;DHT22;17683;53.360;9.736;2022-11-06T05:49:10;8.70;99.90
30648;DHT22;17683;53.360;9.736;2022-11-06T05:51:35;8.70;99.90
30648;DHT22;17683;53.360;9.736;2022-11-06T05:54:01;8.60;99.90
30648;DHT22;17683;53.360;9.736;2022-11-06T05:56:27;8.60;99.90
30648;DHT22;17683;53.360;9.736;2022-11-06T05:58:52;8.70;99.90
30648;DHT22;17683;53.360;9.736;2022-11-06T06:01:18;8.70;99.90
30648;DHT22;17683;53.360;9.736;2022-11-06T06:03:44;8.70;99.90
30648;DHT22;17683;53.360;9.736;2022-11-06T06:06:10;8.70;99.90
30648;DHT22;17683;53.360;9.736;2022-11-06T06:08:35;8.60;99.90
30648;DHT22;17683;53.360;9.736;2022-11-06T06:11:05;8.60;99.90
30648;DHT22;17683;53.360;9.736;2022-11-06T06:13:31;8.60;99.90
30648;DHT22;17683;53.360;9.736;2022-11-06T06:16:00;8.50;99.90
30648;DHT22;17683;53.360;9.736;2022-11-06T06:18:26;8.50;99.90
30648;DHT22;17683;53.360;9.736;2022-11-06T06:20:51;8.50;99.90
30648;DHT22;17683;53.360;9.736;2022-11-06T06:23:17;8.50;99.90
30648;DHT22;17683;53.360;9.736;2022-11-06T06:25:43;8.60;99.90
30648;DHT22;17683;53.360;9.736;2022-11-06T06:28:08;8.60;99.90
30648;DHT22;17683;53.360;9.736;2022-11-06T06:30:34;8.60;99.90
30648;DHT22;17683;53.360;9.736;2022-11-06T06:33:04;8.60;99.90
30648;DHT22;17683;53.360;9.736;2022-11-06T06:35:30;8.50;99.90
30648;DHT22;17683;53.360;9.736;2022-11-06T06:37:56;8.50;99.90
30648;DHT22;17683;53.360;9.736;2022-11-06T06:40:22;8.50;99.90
30648;DHT22;17683;53.360;9.736;2022-11-06T06:42:48;8.50;99.90
30648;DHT22;17683;53.360;9.736;2022-11-06T06:45:14;8.50;99.90
30648;DHT22;17683;53.360;9.736;2022-11-06T06:47:40;8.50;99.90
30648;DHT22;17683;53.360;9.736;2022-11-06T06:50:06;8.50;99.90
30648;DHT22;17683;53.360;9.736;2022-11-06T06:52:32;8.50;99.90
30648;DHT22;17683;53.360;9.736;2022-11-06T06:54:58;8.50;99.90
30648;DHT22;17683;53.360;9.736;2022-11-06T06:57:23;8.50;99.90
30648;DHT22;17683;53.360;9.736;2022-11-06T06:59:49;8.50;99.90
30648;DHT22;17683;53.360;9.736;2022-11-06T07:02:15;8.50;99.90
30648;DHT22;17683;53.360;9.736;2022-11-06T07:04:40;8.60;99.90
30648;DHT22;17683;53.360;9.736;2022-11-06T07:07:06;8.60;99.90
30648;DHT22;17683;53.360;9.736;2022-11-06T07:09:32;8.70;99.90
30648;DHT22;17683;53.360;9.736;2022-11-06T07:11:58;8.70;99.90
30648;DHT22;17683;53.360;9.736;2022-11-06T07:14:23;8.70;99.90
30648;DHT22;17683;53.360;9.736;2022-11-06T07:16:49;8.70;99.90
30648;DHT22;17683;53.360;9.736;2022-11-06T07:19:15;8.80;99.90
30648;DHT22;17683;53.360;9.736;2022-11-06T07:21:41;8.80;99.90
30648;DHT22;17683;53.360;9.736;2022-11-06T07:24:06;8.80;99.90
30648;DHT22;17683;53.360;9.736;2022-11-06T07:26:32;8.80;99.90
30648;DHT22;17683;53.360;9.736;2022-11-06T07:28:58;8.90;99.90
30648;DHT22;17683;53.360;9.736;2022-11-06T07:31:24;8.90;99.90
30648;DHT22;17683;53.360;9.736;2022-11-06T07:33:50;9.00;99.90
30648;DHT22;17683;53.360;9.736;2022-11-06T07:36:15;9.00;99.90
30648;DHT22;17683;53.360;9.736;2022-11-06T07:38:42;9.10;99.90
30648;DHT22;17683;53.360;9.736;2022-11-06T07:41:10;9.10;99.90
30648;DHT22;17683;53.360;9.736;2022-11-06T07:43:37;9.10;99.90
30648;DHT22;17683;53.360;9.736;2022-11-06T07:46:04;9.20;99.90
30648;DHT22;17683;53.360;9.736;2022-11-06T07:48:31;9.20;99.90
30648;DHT22;17683;53.360;9.736;2022-11-06T07:50:57;9.30;99.90
30648;DHT22;17683;53.360;9.736;2022-11-06T07:53:23;9.30;99.90
30648;DHT22;17683;53.360;9.736;2022-11-06T07:55:50;9.30;99.90
30648;DHT22;17683;53.360;9.736;2022-11-06T07:58:17;9.30;99.90
30648;DHT22;17683;53.360;9.736;2022-11-06T08:00:50;9.40;99.90
30648;DHT22;17683;53.360;9.736;2022-11-06T08:03:16;9.40;99.90
30648;DHT22;17683;53.360;9.736;2022-11-06T08:05:43;9.40;99.90
30648;DHT22;17683;53.360;9.736;2022-11-06T08:08:08;9.50;99.90
30648;DHT22;17683;53.360;9.736;2022-11-06T08:10:35;9.50;99.90
30648;DHT22;17683;53.360;9.736;2022-11-06T08:13:05;9.50;99.90
30648;DHT22;17683;53.360;9.736;2022-11-06T08:15:31;9.60;99.90
30648;DHT22;17683;53.360;9.736;2022-11-06T08:17:58;9.60;99.90
30648;DHT22;17683;53.360;9.736;2022-11-06T08:20:24;9.70;99.90
30648;DHT22;17683;53.360;9.736;2022-11-06T08:22:50;9.70;99.90
30648;DHT22;17683;53.360;9.736;2022-11-06T08:25:15;9.70;99.90
30648;DHT22;17683;53.360;9.736;2022-11-06T08:27:41;9.80;99.90
30648;DHT22;17683;53.360;9.736;2022-11-06T08:30:07;9.80;99.90
30648;DHT22;17683;53.360;9.736;2022-11-06T08:32:33;9.90;99.90
30648;DHT22;17683;53.360;9.736;2022-11-06T08:34:59;9.90;99.90
30648;DHT22;17683;53.360;9.736;2022-11-06T08:37:25;10.00;99.90
30648;DHT22;17683;53.360;9.736;2022-11-06T08:39:50;10.00;99.90
30648;DHT22;17683;53.360;9.736;2022-11-06T08:42:17;10.10;99.90
30648;DHT22;17683;53.360;9.736;2022-11-06T08:44:42;10.10;99.90
30648;DHT22;17683;53.360;9.736;2022-11-06T08:47:08;10.10;99.90
30648;DHT22;17683;53.360;9.736;2022-11-06T08:49:34;10.20;99.90
30648;DHT22;17683;53.360;9.736;2022-11-06T08:51:59;10.20;99.90
30648;DHT22;17683;53.360;9.736;2022-11-06T08:54:25;10.20;99.90
30648;DHT22;17683;53.360;9.736;2022-11-06T08:56:51;10.20;99.90
30648;DHT22;17683;53.360;9.736;2022-11-06T08:59:17;10.20;99.90
30648;DHT22;17683;53.360;9.736;2022-11-06T09:01:43;10.20;99.90
30648;DHT22;17683;53.360;9.736;2022-11-06T09:04:09;10.30;99.90
30648;DHT22;17683;53.360;9.736;2022-11-06T09:06:34;10.30;99.90
30648;DHT22;17683;53.360;9.736;2022-11-06T09:09:00;10.30;99.90
30648;DHT22;17683;53.360;9.736;2022-11-06T09:11:26;10.30;99.90
30648;DHT22;17683;53.360;9.736;2022-11-06T09:13:51;10.40;99.90
30648;DHT22;17683;53.360;9.736;2022-11-06T09:16:17;10.40;99.90
30648;DHT22;17683;53.360;9.736;2022-11-06T09:18:43;10.40;99.90
30648;DHT22;17683;53.360;9.736;2022-11-06T09:21:09;10.50;99.90
30648;DHT22;17683;53.360;9.736;2022-11-06T09:23:35;10.50;99.90
30648;DHT22;17683;53.360;9.736;2022-11-06T09:26:00;10.60;99.90
30648;DHT22;17683;53.360;9.736;2022-11-06T09:28:26;10.60;99.90
30648;DHT22;17683;53.360;9.736;2022-11-06T09:30:52;10.60;99.90
30648;DHT22;17683;53.360;9.736;2022-11-06T09:33:20;10.60;99.90
30648;DHT22;17683;53.360;9.736;2022-11-06T09:35:45;10.70;99.90
30648;DHT22;17683;53.360;9.736;2022-11-06T09:38:12;10.70;99.90
30648;DHT22;17683;53.360;9.736;2022-11-06T09:41:02;10.80;99.90
30648;DHT22;17683;53.360;9.736;2022-11-06T09:46:25;10.90;99.90
30648;DHT22;17683;53.360;9.736;2022-11-06T09:52:01;11.00;99.90
30648;DHT22;17683;53.360;9.736;2022-11-06T09:54:55;11.10;99.90
30648;DHT22;17683;53.360;9.736;2022-11-06T09:57:33;11.10;99.90
30648;DHT22;17683;53.360;9.736;2022-11-06T10:00:02;11.10;99.90
30648;DHT22;17683;53.360;9.736;2022-11-06T10:02:41;11.20;99.90
30648;DHT22;17683;53.360;9.736;2022-11-06T10:05:24;11.20;99.90
30648;DHT22;17683;53.360;9.736;2022-11-06T10:08:33;11.20;99.90
30648;DHT22;17683;53.360;9.736;2022-11-06T10:10:44;11.30;99.90
30648;DHT22;17683;53.360;9.736;2022-11-06T10:21:31;11.30;99.90
30648;DHT22;17683;53.360;9.736;2022-11-06T10:24:15;11.40;99.90
30648;DHT22;17683;53.360;9.736;2022-11-06T10:26:53;11.40;99.90
30648;DHT22;17683;53.360;9.736;2022-11-06T10:29:46;11.50;99.90
30648;DHT22;17683;53.360;9.736;2022-11-06T10:35:42;11.70;99.90
30648;DHT22;17683;53.360;9.736;2022-11-06T10:38:14;11.80;99.90
30648;DHT22;17683;53.360;9.736;2022-11-06T10:40:43;11.80;99.90
30648;DHT22;17683;53.360;9.736;2022-11-06T10:48:57;12.10;99.90
30648;DHT22;17683;53.360;9.736;2022-11-06T10:54:34;12.20;99.90
30648;DHT22;17683;53.360;9.736;2022-11-06T10:59:58;12.30;99.90
30648;DHT22;17683;53.360;9.736;2022-11-06T11:02:35;12.40;99.90
30648;DHT22;17683;53.360;9.736;2022-11-06T11:05:10;12.50;99.90
30648;DHT22;17683;53.360;9.736;2022-11-06T11:07:37;12.50;99.90
30648;DHT22;17683;53.360;9.736;2022-11-06T11:12:48;12.60;99.90
30648;DHT22;17683;53.360;9.736;2022-11-06T11:15:17;12.60;99.90
30648;DHT22;17683;53.360;9.736;2022-11-06T11:18:17;12.70;99.90
30648;DHT22;17683;53.360;9.736;2022-11-06T11:20:44;12.80;99.90
30648;DHT22;17683;53.360;9.736;2022-11-06T11:23:22;12.80;99.90
30648;DHT22;17683;53.360;9.736;2022-11-06T11:25:54;12.80;99.90
30648;DHT22;17683;53.360;9.736;2022-11-06T11:28:34;12.80;99.90
30648;DHT22;17683;53.360;9.736;2022-11-06T11:33:33;12.90;99.90
30648;DHT22;17683;53.360;9.736;2022-11-06T11:35:59;13.00;99.90
30648;DHT22;17683;53.360;9.736;2022-11-06T11:38:27;13.00;99.90
30648;DHT22;17683;53.360;9.736;2022-11-06T11:41:10;13.10;99.90
30648;DHT22;17683;53.360;9.736;2022-11-06T11:43:37;13.10;99.90
30648;DHT22;17683;53.360;9.736;2022-11-06T11:48:44;13.20;99.90
30648;DHT22;17683;53.360;9.736;2022-11-06T11:56:51;13.30;99.90
30648;DHT22;17683;53.360;9.736;2022-11-06T11:59:21;13.30;99.90
30648;DHT22;17683;53.360;9.736;2022-11-06T12:01:48;13.40;99.90
30648;DHT22;17683;53.360;9.736;2022-11-06T12:04:24;13.40;99.90
30648;DHT22;17683;53.360;9.736;2022-11-06T12:07:01;13.40;99.90
30648;DHT22;17683;53.360;9.736;2022-11-06T12:09:28;13.40;99.90
30648;DHT22;17683;53.360;9.736;2022-11-06T12:11:58;13.50;99.90
30648;DHT22;17683;53.360;9.736;2022-11-06T12:17:01;13.50;99.90
30648;DHT22;17683;53.360;9.736;2022-11-06T12:19:30;13.50;99.90
30648;DHT22;17683;53.360;9.736;2022-11-06T12:22:00;13.50;99.90
30648;DHT22;17683;53.360;9.736;2022-11-06T12:24:40;13.40;99.90
30648;DHT22;17683;53.360;9.736;2022-11-06T12:27:14;13.50;99.90
30648;DHT22;17683;53.360;9.736;2022-11-06T12:29:43;13.50;99.90
30648;DHT22;17683;53.360;9.736;2022-11-06T12:41:03;13.70;99.90
30648;DHT22;17683;53.360;9.736;2022-11-06T12:46:06;13.80;99.90
30648;DHT22;17683;53.360;9.736;2022-11-06T12:59:55;13.60;99.90
30648;DHT22;17683;53.360;9.736;2022-11-06T13:02:32;13.60;99.90
30648;DHT22;17683;53.360;9.736;2022-11-06T13:05:16;13.50;99.90
30648;DHT22;17683;53.360;9.736;2022-11-06T13:21:36;13.20;99.90
30648;DHT22;17683;53.360;9.736;2022-11-06T13:24:15;13.20;99.90
30648;DHT22;17683;53.360;9.736;2022-11-06T13:27:23;13.20;99.90
30648;DHT22;17683;53.360;9.736;2022-11-06T13:29:51;13.20;99.90
30648;DHT22;17683;53.360;9.736;2022-11-06T13:32:23;13.20;99.90
30648;DHT22;17683;53.360;9.736;2022-11-06T13:34:51;13.10;99.90
30648;DHT22;17683;53.360;9.736;2022-11-06T13:37:37;13.10;99.90
30648;DHT22;17683;53.360;9.736;2022-11-06T13:40:25;13.00;99.90
30648;DHT22;17683;53.360;9.736;2022-11-06T13:43:00;13.00;99.90
30648;DHT22;17683;53.360;9.736;2022-11-06T13:45:30;12.90;99.90
30648;DHT22;17683;53.360;9.736;2022-11-06T13:48:06;12.90;99.90
30648;DHT22;17683;53.360;9.736;2022-11-06T13:50:41;12.90;99.90
30648;DHT22;17683;53.360;9.736;2022-11-06T13:56:30;12.70;99.90
30648;DHT22;17683;53.360;9.736;2022-11-06T13:59:25;12.70;99.90
30648;DHT22;17683;53.360;9.736;2022-11-06T14:02:20;12.60;99.90
30648;DHT22;17683;53.360;9.736;2022-11-06T14:07:40;12.60;99.90
30648;DHT22;17683;53.360;9.736;2022-11-06T14:10:21;12.60;99.90
30648;DHT22;17683;53.360;9.736;2022-11-06T14:12:48;12.60;99.90
30648;DHT22;17683;53.360;9.736;2022-11-06T14:17:54;12.60;99.90
30648;DHT22;17683;53.360;9.736;2022-11-06T14:20:30;12.60;99.90
30648;DHT22;17683;53.360;9.736;2022-11-06T14:26:03;12.50;99.90
30648;DHT22;17683;53.360;9.736;2022-11-06T14:28:35;12.40;99.90
30648;DHT22;17683;53.360;9.736;2022-11-06T14:31:01;12.40;99.90
30648;DHT22;17683;53.360;9.736;2022-11-06T14:38:49;12.40;99.90
30648;DHT22;17683;53.360;9.736;2022-11-06T14:44:04;12.40;99.90
30648;DHT22;17683;53.360;9.736;2022-11-06T14:46:31;12.40;99.90
30648;DHT22;17683;53.360;9.736;2022-11-06T14:49:49;12.30;99.90
30648;DHT22;17683;53.360;9.736;2022-11-06T14:52:08;12.30;99.90
30648;DHT22;17683;53.360;9.736;2022-11-06T14:54:37;12.30;99.90
30648;DHT22;17683;53.360;9.736;2022-11-06T14:57:06;12.30;99.90
30648;DHT22;17683;53.360;9.736;2022-11-06T14:59:35;12.20;99.90
30648;DHT22;17683;53.360;9.736;2022-11-06T15:02:26;12.20;99.90
30648;DHT22;17683;53.360;9.736;2022-11-06T15:05:20;12.20;99.90
30648;DHT22;17683;53.360;9.736;2022-11-06T15:16:16;12.00;99.90
30648;DHT22;17683;53.360;9.736;2022-11-06T15:18:36;12.00;99.90
30648;DHT22;17683;53.360;9.736;2022-11-06T15:21:06;11.90;99.90
30648;DHT22;17683;53.360;9.736;2022-11-06T15:26:27;11.90;99.90
30648;DHT22;17683;53.360;9.736;2022-11-06T15:29:19;11.90;99.90
30648;DHT22;17683;53.360;9.736;2022-11-06T15:31:48;11.80;99.90
30648;DHT22;17683;53.360;9.736;2022-11-06T15:34:41;11.80;99.90
30648;DHT22;17683;53.360;9.736;2022-11-06T15:37:22;11.80;99.90
30648;DHT22;17683;53.360;9.736;2022-11-06T15:39:50;11.70;99.90
30648;DHT22;17683;53.360;9.736;2022-11-06T15:42:24;11.70;99.90
30648;DHT22;17683;53.360;9.736;2022-11-06T15:44:51;11.60;99.90
30648;DHT22;17683;53.360;9.736;2022-11-06T15:47:21;11.60;99.90
30648;DHT22;17683;53.360;9.736;2022-11-06T15:49:47;11.60;99.90
30648;DHT22;17683;53.360;9.736;2022-11-06T15:52:17;11.60;99.90
30648;DHT22;17683;53.360;9.736;2022-11-06T15:54:43;11.50;99.90
30648;DHT22;17683;53.360;9.736;2022-11-06T15:57:23;11.50;99.90
30648;DHT22;17683;53.360;9.736;2022-11-06T15:59:50;11.40;99.90
30648;DHT22;17683;53.360;9.736;2022-11-06T16:02:30;11.40;99.90
30648;DHT22;17683;53.360;9.736;2022-11-06T16:04:56;11.40;99.90
30648;DHT22;17683;53.360;9.736;2022-11-06T16:07:22;11.40;99.90
30648;DHT22;17683;53.360;9.736;2022-11-06T16:09:48;11.40;99.90
30648;DHT22;17683;53.360;9.736;2022-11-06T16:12:16;11.40;99.90
30648;DHT22;17683;53.360;9.736;2022-11-06T16:14:43;11.30;99.90
30648;DHT22;17683;53.360;9.736;2022-11-06T16:17:11;11.30;99.90
30648;DHT22;17683;53.360;9.736;2022-11-06T16:19:43;11.30;99.90
30648;DHT22;17683;53.360;9.736;2022-11-06T16:22:13;11.30;99.90
30648;DHT22;17683;53.360;9.736;2022-11-06T16:27:09;11.20;99.90
30648;DHT22;17683;53.360;9.736;2022-11-06T16:29:35;11.20;99.90
30648;DHT22;17683;53.360;9.736;2022-11-06T16:32:06;11.10;99.90
30648;DHT22;17683;53.360;9.736;2022-11-06T16:34:34;11.10;99.90
30648;DHT22;17683;53.360;9.736;2022-11-06T16:37:04;11.10;99.90
30648;DHT22;17683;53.360;9.736;2022-11-06T16:39:49;11.00;99.90
30648;DHT22;17683;53.360;9.736;2022-11-06T16:42:33;11.10;99.90
30648;DHT22;17683;53.360;9.736;2022-11-06T16:45:16;11.00;99.90
30648;DHT22;17683;53.360;9.736;2022-11-06T16:50:47;11.00;99.90
30648;DHT22;17683;53.360;9.736;2022-11-06T16:53:23;11.00;99.90
30648;DHT22;17683;53.360;9.736;2022-11-06T16:56:02;11.00;99.90
30648;DHT22;17683;53.360;9.736;2022-11-06T16:58:32;11.00;99.90
30648;DHT22;17683;53.360;9.736;2022-11-06T17:01:03;11.00;99.90
30648;DHT22;17683;53.360;9.736;2022-11-06T17:03:37;10.90;99.90
30648;DHT22;17683;53.360;9.736;2022-11-06T17:06:04;10.90;99.90
30648;DHT22;17683;53.360;9.736;2022-11-06T17:08:35;10.90;99.90
30648;DHT22;17683;53.360;9.736;2022-11-06T17:13:43;10.80;99.90
30648;DHT22;17683;53.360;9.736;2022-11-06T17:16:15;10.80;99.90
30648;DHT22;17683;53.360;9.736;2022-11-06T17:18:41;10.80;99.90
30648;DHT22;17683;53.360;9.736;2022-11-06T17:21:15;10.70;99.90
30648;DHT22;17683;53.360;9.736;2022-11-06T17:23:42;10.80;99.90
30648;DHT22;17683;53.360;9.736;2022-11-06T17:26:29;10.70;99.90
30648;DHT22;17683;53.360;9.736;2022-11-06T17:28:56;10.70;99.90
30648;DHT22;17683;53.360;9.736;2022-11-06T17:31:23;10.70;99.90
30648;DHT22;17683;53.360;9.736;2022-11-06T17:33:49;10.70;99.90
30648;DHT22;17683;53.360;9.736;2022-11-06T17:36:19;10.60;99.90
30648;DHT22;17683;53.360;9.736;2022-11-06T17:38:46;10.60;99.90
30648;DHT22;17683;53.360;9.736;2022-11-06T17:41:13;10.50;99.90
30648;DHT22;17683;53.360;9.736;2022-11-06T17:43:58;10.60;99.90
30648;DHT22;17683;53.360;9.736;2022-11-06T17:46:25;10.60;99.90
30648;DHT22;17683;53.360;9.736;2022-11-06T17:48:52;10.50;99.90
30648;DHT22;17683;53.360;9.736;2022-11-06T17:51:18;10.50;99.90
30648;DHT22;17683;53.360;9.736;2022-11-06T17:54:03;10.60;99.90
30648;DHT22;17683;53.360;9.736;2022-11-06T17:56:28;10.50;99.90
30648;DHT22;17683;53.360;9.736;2022-11-06T17:58:54;10.50;99.90
30648;DHT22;17683;53.360;9.736;2022-11-06T18:01:20;10.50;99.90
30648;DHT22;17683;53.360;9.736;2022-11-06T18:03:45;10.50;99.90
30648;DHT22;17683;53.360;9.736;2022-11-06T18:06:13;10.50;99.90
30648;DHT22;17683;53.360;9.736;2022-11-06T18:08:39;10.50;99.90
30648;DHT22;17683;53.360;9.736;2022-11-06T18:11:06;10.60;99.90
30648;DHT22;17683;53.360;9.736;2022-11-06T18:13:33;10.50;99.90
30648;DHT22;17683;53.360;9.736;2022-11-06T18:15:59;10.50;99.90
30648;DHT22;17683;53.360;9.736;2022-11-06T18:18:25;10.50;99.90
30648;DHT22;17683;53.360;9.736;2022-11-06T18:20:50;10.50;99.90
30648;DHT22;17683;53.360;9.736;2022-11-06T18:23:16;10.50;99.90
30648;DHT22;17683;53.360;9.736;2022-11-06T18:25:42;10.50;99.90
30648;DHT22;17683;53.360;9.736;2022-11-06T18:28:08;10.50;99.90